Time;durP1;ratioP1;P1;durP2;ratioP2;P2;SDS_P1;SDS_P2;PMS_P1;PMS_P2;Temp;Humidity;BMP_temperature;BMP_pressure;BME280_temperature;BME280_humidity;BME280_pressure;Samples;Min_cycle;Max_cycle;Signal;HPM_P1;HPM_P2
2024/01/12 00:02:16;;;;;;;0.10;0.10;;;;;;;2.04;100.00;100540.66;5096020;28;20194;-52
2024/01/12 00:05:03;;;;;;;0.10;0.10;;;;;;;2.07;100.00;100545.84;5096179;28;20187;-51
2024/01/12 00:07:50;;;;;;;0.10;0.10;;;;;;;2.22;100.00;100541.41;5094694;28;20203;-52
2024/01/12 00:10:37;;;;;;;0.10;0.10;;;;;;;2.04;100.00;100540.66;5096012;28;20195;-52
2024/01/12 00:13:25;;;;;;;0.10;0.10;;;;;;;2.08;100.00;100542.38;5095903;28;20315;-52
2024/01/12 00:16:12;;;;;;;0.10;0.10;;;;;;;1.97;100.00;100543.31;5095821;28;20276;-52
2024/01/12 00:18:59;;;;;;;0.10;0.10;;;;;;;1.96;100.00;100544.19;5095526;28;20198;-51
2024/01/12 00:21:46;;;;;;;0.10;0.10;;;;;;;2.11;100.00;100552.78;5085342;28;20231;-52
2024/01/12 00:24:33;;;;;;;0.10;0.10;;;;;;;2.03;100.00;100544.13;5074678;28;20402;-52
2024/01/12 00:27:20;;;;;;;0.10;0.10;;;;;;;1.96;100.00;100546.81;5075204;28;20323;-52
2024/01/12 00:30:09;;;;;;;0.10;0.10;;;;;;;2.14;100.00;100544.94;5075346;28;20199;-52
2024/01/12 00:32:56;;;;;;;0.10;0.10;;;;;;;1.98;100.00;100542.44;5075080;28;20678;-52
2024/01/12 00:35:43;;;;;;;0.10;0.10;;;;;;;2.20;100.00;100540.50;5075091;28;20195;-51
2024/01/12 00:38:30;;;;;;;0.00;0.00;;;;;;;2.10;100.00;100554.53;5073566;28;20204;-52
2024/01/12 00:41:17;;;;;;;0.10;0.10;;;;;;;2.03;100.00;100547.63;5074613;28;20199;-52
2024/01/12 00:44:04;;;;;;;0.10;0.10;;;;;;;2.13;100.00;100557.16;5074701;28;20368;-51
2024/01/12 00:46:52;;;;;;;0.10;0.10;;;;;;;2.06;100.00;100550.22;5074908;28;20194;-51
2024/01/12 00:49:39;;;;;;;0.10;0.10;;;;;;;2.10;100.00;100551.91;5074699;28;20701;-52
2024/01/12 00:52:26;;;;;;;0.10;0.10;;;;;;;2.20;100.00;100557.94;5073437;28;20257;-51
2024/01/12 00:55:13;;;;;;;0.10;0.10;;;;;;;2.19;100.00;100553.59;5074755;28;20184;-52
2024/01/12 00:58:00;;;;;;;0.10;0.10;;;;;;;2.15;100.00;100555.38;5074433;28;20188;-52
2024/01/12 01:00:47;;;;;;;0.10;0.10;;;;;;;2.08;100.00;100555.44;5074624;28;20195;-51
2024/01/12 01:03:37;;;;;;;0.10;0.10;;;;;;;2.14;100.00;100552.78;5074694;28;20371;-51
2024/01/12 01:06:23;;;;;;;0.10;0.10;;;;;;;2.08;100.00;100555.44;5073494;28;20254;-51
2024/01/12 01:09:10;;;;;;;0.10;0.10;;;;;;;2.01;100.00;100557.22;5074129;28;20203;-51
2024/01/12 01:11:57;;;;;;;0.10;0.10;;;;;;;2.00;100.00;100558.94;5074615;28;20196;-52
2024/01/12 01:14:44;;;;;;;0.10;0.10;;;;;;;1.98;100.00;100558.09;5074367;28;20215;-51
2024/01/12 01:17:31;;;;;;;0.10;0.10;;;;;;;2.11;100.00;100558.00;5074331;28;20239;-52
2024/01/12 01:20:19;;;;;;;0.10;0.10;;;;;;;1.95;100.00;100557.28;5074039;28;20207;-52
2024/01/12 01:23:06;;;;;;;0.10;0.10;;;;;;;1.99;100.00;100558.97;5092600;28;20238;-51
2024/01/12 01:25:54;;;;;;;0.10;0.10;;;;;;;2.03;100.00;100551.97;5090494;28;20662;-51
2024/01/12 01:28:41;;;;;;;0.10;0.10;;;;;;;1.97;100.00;100551.16;5094328;28;20225;-52
2024/01/12 01:31:28;;;;;;;0.10;0.10;;;;;;;1.97;100.00;100556.38;5094316;28;20232;-52
2024/01/12 01:34:15;;;;;;;0.00;0.00;;;;;;;1.91;100.00;100553.78;5094227;28;20237;-52
2024/01/12 01:37:04;;;;;;;0.10;0.10;;;;;;;1.98;100.00;100557.25;5092007;28;20328;-52
2024/01/12 01:39:51;;;;;;;0.10;0.10;;;;;;;1.96;100.00;100564.22;5093449;28;20320;-52
2024/01/12 01:42:40;;;;;;;0.10;0.10;;;;;;;1.93;100.00;100552.06;5093992;28;20408;-52
2024/01/12 01:45:27;;;;;;;0.10;0.10;;;;;;;2.08;100.00;100558.91;5093694;28;20215;-52
2024/01/12 01:48:15;;;;;;;0.10;0.10;;;;;;;1.94;100.00;100556.41;5093952;28;20190;-52
2024/01/12 01:51:03;;;;;;;0.00;0.00;;;;;;;2.05;100.00;100556.31;5093973;28;20677;-52
2024/01/12 01:53:53;;;;;;;0.10;0.10;;;;;;;1.99;100.00;100554.59;5093924;28;20195;-52
2024/01/12 01:56:41;;;;;;;0.10;0.10;;;;;;;1.95;100.00;100554.66;5093949;28;20198;-52
2024/01/12 01:59:28;;;;;;;0.10;0.10;;;;;;;1.96;100.00;100559.00;5093704;28;20202;-52
2024/01/12 02:02:15;;;;;;;0.10;0.10;;;;;;;1.80;100.00;100549.50;5093673;28;20194;-52
2024/01/12 02:05:04;;;;;;;0.03;0.03;;;;;;;1.89;100.00;100555.53;5093534;28;20292;-52
2024/01/12 02:07:51;;;;;;;0.10;0.10;;;;;;;1.87;100.00;100546.00;5092401;28;20190;-52
2024/01/12 02:10:39;;;;;;;0.10;0.10;;;;;;;1.88;100.00;100545.97;5093514;28;20195;-52
2024/01/12 02:13:26;;;;;;;0.10;0.10;;;;;;;2.06;100.00;100542.38;5093641;28;20233;-51
2024/01/12 02:16:13;;;;;;;0.00;0.00;;;;;;;2.09;100.00;100551.94;5093437;28;20225;-51
2024/01/12 02:19:00;;;;;;;0.10;0.10;;;;;;;2.05;100.00;100545.88;5087962;28;20198;-51
2024/01/12 02:21:48;;;;;;;0.10;0.10;;;;;;;1.94;100.00;100545.09;5071690;28;20789;-52
2024/01/12 02:24:35;;;;;;;0.10;0.10;;;;;;;2.01;100.00;100552.84;5057836;28;20286;-52
2024/01/12 02:27:22;;;;;;;0.10;0.10;;;;;;;2.13;100.00;100551.06;5073242;28;20200;-51
2024/01/12 02:30:10;;;;;;;0.03;0.03;;;;;;;2.00;100.00;100550.25;5081628;28;20681;-51
2024/01/12 02:32:57;;;;;;;0.10;0.10;;;;;;;1.83;100.00;100550.34;5093279;28;20214;-51
2024/01/12 02:35:45;;;;;;;0.00;0.00;;;;;;;1.92;100.00;100549.44;5093330;28;20210;-52
2024/01/12 02:38:33;;;;;;;0.10;0.10;;;;;;;1.94;100.00;100543.34;5091498;28;20733;-51
2024/01/12 02:41:20;;;;;;;0.10;0.10;;;;;;;2.04;100.00;100541.53;5093050;28;20206;-51
2024/01/12 02:44:06;;;;;;;0.10;0.10;;;;;;;1.92;100.00;100536.38;5093051;28;20202;-52
2024/01/12 02:46:54;;;;;;;0.10;0.10;;;;;;;1.95;100.00;100541.59;5093008;28;20190;-52
2024/01/12 02:49:43;;;;;;;0.10;0.10;;;;;;;1.94;100.00;100537.25;5092488;28;20222;-51
2024/01/12 02:52:35;;;;;;;0.10;0.10;;;;;;;2.04;100.00;100544.16;5091744;28;20198;-52
2024/01/12 02:55:23;;;;;;;0.10;0.10;;;;;;;2.00;100.00;100538.06;5092818;28;20254;-52
2024/01/12 02:58:10;;;;;;;0.10;0.10;;;;;;;1.97;100.00;100530.25;5092916;28;20305;-52
2024/01/12 03:00:57;;;;;;;0.10;0.10;;;;;;;2.04;100.00;100532.81;5092889;28;20198;-52
2024/01/12 03:03:44;;;;;;;0.10;0.10;;;;;;;1.94;100.00;100537.25;5092946;28;20195;-52
2024/01/12 03:06:31;;;;;;;0.10;0.10;;;;;;;1.92;100.00;100538.97;5091566;28;20285;-52
2024/01/12 03:09:18;;;;;;;0.10;0.10;;;;;;;1.92;100.00;100541.59;5092792;28;20202;-52
2024/01/12 03:12:06;;;;;;;0.10;0.10;;;;;;;1.85;100.00;100535.56;5092787;28;20671;-52
2024/01/12 03:14:53;;;;;;;0.10;0.10;;;;;;;1.89;100.00;100544.22;5092832;28;20195;-52
2024/01/12 03:17:40;;;;;;;0.10;0.10;;;;;;;1.89;100.00;100537.25;5092728;28;20194;-51
2024/01/12 03:20:27;;;;;;;0.10;0.10;;;;;;;1.95;100.00;100538.97;5092490;28;20298;-52
2024/01/12 03:23:14;;;;;;;0.10;0.10;;;;;;;1.96;100.00;100545.94;5071273;28;20195;-52
2024/01/12 03:26:01;;;;;;;0.10;0.10;;;;;;;2.05;100.00;100543.25;5072397;28;20269;-52
2024/01/12 03:28:49;;;;;;;0.10;0.10;;;;;;;1.90;100.00;100551.19;5072995;28;20199;-52
2024/01/12 03:31:36;;;;;;;0.10;0.10;;;;;;;1.89;100.00;100550.31;5092232;28;20211;-52
2024/01/12 03:34:23;;;;;;;0.10;0.10;;;;;;;1.87;100.00;100541.63;5073628;28;20203;-52
2024/01/12 03:37:10;;;;;;;0.10;0.10;;;;;;;1.92;100.00;100541.59;5070871;28;20207;-52
2024/01/12 03:39:57;;;;;;;0.10;0.10;;;;;;;2.00;100.00;100548.50;5072483;28;20323;-52
2024/01/12 03:42:44;;;;;;;0.10;0.10;;;;;;;1.96;100.00;100549.41;5072233;28;20195;-52
2024/01/12 03:45:33;;;;;;;0.10;0.10;;;;;;;2.05;100.00;100548.50;5071748;28;20227;-51
2024/01/12 03:48:20;;;;;;;0.10;0.10;;;;;;;2.18;100.00;100549.25;5072399;28;20337;-52
2024/01/12 03:51:07;;;;;;;0.10;0.10;;;;;;;2.06;100.00;100547.59;5074033;28;20198;-52
2024/01/12 03:53:54;;;;;;;0.10;0.10;;;;;;;2.00;100.00;100542.41;5075738;28;20195;-51
2024/01/12 03:56:41;;;;;;;0.10;0.10;;;;;;;1.92;100.00;100533.75;5075880;28;20187;-51
2024/01/12 03:59:28;;;;;;;0.10;0.10;;;;;;;2.23;100.00;100542.25;5075831;28;20319;-51
2024/01/12 04:02:16;;;;;;;0.10;0.10;;;;;;;2.17;100.00;100532.72;5075707;28;20288;-52
2024/01/12 04:05:04;;;;;;;0.10;0.10;;;;;;;2.08;100.00;100529.28;5075575;28;20570;-52
2024/01/12 04:07:51;;;;;;;0.10;0.10;;;;;;;2.17;100.00;100527.47;5074590;28;20199;-52
2024/01/12 04:10:38;;;;;;;0.10;0.10;;;;;;;2.00;100.00;100526.72;5075326;28;20238;-52
2024/01/12 04:13:24;;;;;;;0.10;0.10;;;;;;;2.00;100.00;100530.22;5075649;28;20191;-52
2024/01/12 04:16:12;;;;;;;0.10;0.10;;;;;;;1.88;100.00;100539.88;5075628;28;20200;-52
2024/01/12 04:19:00;;;;;;;0.10;0.10;;;;;;;2.07;100.00;100540.63;5075375;28;20548;-51
2024/01/12 04:21:46;;;;;;;0.03;0.03;;;;;;;1.81;100.00;100551.25;5073901;28;20235;-52
2024/01/12 04:24:34;;;;;;;0.10;0.10;;;;;;;2.08;100.00;100540.63;5075459;28;20195;-51
2024/01/12 04:27:20;;;;;;;0.10;0.10;;;;;;;2.15;100.00;100531.00;5075242;28;20346;-52
2024/01/12 04:30:09;;;;;;;0.10;0.10;;;;;;;2.12;100.00;100534.47;5081731;28;20318;-52
2024/01/12 04:32:56;;;;;;;0.10;0.10;;;;;;;2.06;100.00;100533.69;5095517;28;20191;-52
2024/01/12 04:35:44;;;;;;;0.10;0.10;;;;;;;1.87;100.00;100531.19;5095349;28;20183;-51
2024/01/12 04:38:31;;;;;;;0.10;0.10;;;;;;;1.83;100.00;100532.06;5095310;28;20238;-52
2024/01/12 04:41:18;;;;;;;0.10;0.10;;;;;;;1.90;100.00;100532.91;5095210;28;20191;-52
2024/01/12 04:44:05;;;;;;;0.10;0.10;;;;;;;1.84;100.00;100532.97;5095151;28;20187;-52
2024/01/12 04:46:52;;;;;;;0.10;0.10;;;;;;;2.14;100.00;100537.09;5094906;28;20217;-51
2024/01/12 04:49:38;;;;;;;0.10;0.10;;;;;;;1.95;100.00;100529.41;5095083;28;20257;-52
2024/01/12 04:52:27;;;;;;;0.10;0.10;;;;;;;2.22;100.00;100525.72;5093760;28;20305;-52
2024/01/12 04:55:13;;;;;;;0.00;0.00;;;;;;;2.14;100.00;100509.22;5095123;28;20194;-52
2024/01/12 04:58:00;;;;;;;0.10;0.10;;;;;;;2.17;100.00;100501.34;5094886;28;20322;-52
2024/01/12 05:00:48;;;;;;;0.00;0.00;;;;;;;2.14;100.00;100503.13;5092557;28;20233;-52
2024/01/12 05:03:35;;;;;;;0.10;0.10;;;;;;;2.25;100.00;100501.28;5094858;28;20190;-52
2024/01/12 05:06:22;;;;;;;0.10;0.10;;;;;;;2.25;100.00;100499.53;5093424;28;20223;-52
2024/01/12 05:09:10;;;;;;;0.10;0.10;;;;;;;2.08;100.00;100504.03;5094753;28;20552;-52
2024/01/12 05:11:59;;;;;;;0.10;0.10;;;;;;;2.13;100.00;100501.41;5074589;28;20318;-52
2024/01/12 05:14:46;;;;;;;0.10;0.10;;;;;;;1.98;100.00;100505.84;5074544;28;20546;-51
2024/01/12 05:17:33;;;;;;;0.10;0.10;;;;;;;1.90;100.00;100499.81;5074472;28;20191;-52
2024/01/12 05:20:21;;;;;;;0.10;0.10;;;;;;;1.88;100.00;100498.97;5081762;28;20266;-51
2024/01/12 05:23:09;;;;;;;0.10;0.10;;;;;;;1.70;100.00;100504.31;5093217;28;20195;-52
2024/01/12 05:25:57;;;;;;;0.10;0.10;;;;;;;2.13;100.00;100504.88;5094493;28;20325;-51
2024/01/12 05:28:44;;;;;;;0.10;0.10;;;;;;;2.03;100.00;100498.00;5094616;28;20199;-52
2024/01/12 05:31:31;;;;;;;0.10;0.10;;;;;;;1.82;100.00;100512.03;5094352;28;20202;-52
2024/01/12 05:34:18;;;;;;;0.10;0.10;;;;;;;1.82;100.00;100512.03;5094030;28;20190;-52
2024/01/12 05:37:05;;;;;;;0.10;0.10;;;;;;;1.66;100.00;100513.91;5072956;28;20195;-52
2024/01/12 05:39:52;;;;;;;0.00;0.00;;;;;;;1.54;100.00;100521.78;5080206;28;20681;-52
2024/01/12 05:42:40;;;;;;;0.10;0.10;;;;;;;1.71;100.00;100530.41;5094214;28;20198;-52
2024/01/12 05:45:27;;;;;;;0.00;0.00;;;;;;;1.77;100.00;100534.72;5094072;28;20195;-52
2024/01/12 05:48:14;;;;;;;0.10;0.10;;;;;;;1.86;100.00;100536.44;5094036;28;20191;-52
2024/01/12 05:51:01;;;;;;;0.10;0.10;;;;;;;1.81;100.00;100536.44;5093621;28;20362;-52
2024/01/12 05:53:48;;;;;;;0.03;0.03;;;;;;;1.53;100.00;100538.34;5078680;28;20191;-52
2024/01/12 05:56:35;;;;;;;0.10;0.10;;;;;;;1.65;100.00;100537.44;5093864;28;20191;-51
2024/01/12 05:59:24;;;;;;;0.10;0.10;;;;;;;1.83;100.00;100534.69;5093956;28;20198;-51
2024/01/12 06:02:14;;;;;;;0.10;0.10;;;;;;;1.89;100.00;100537.25;5073583;28;20191;-52
2024/01/12 06:05:01;;;;;;;0.10;0.10;;;;;;;1.80;100.00;100536.44;5073478;28;20203;-51
2024/01/12 06:07:48;;;;;;;0.10;0.10;;;;;;;1.80;100.00;100541.69;5071782;28;20218;-51
2024/01/12 06:10:35;;;;;;;0.03;0.03;;;;;;;1.81;100.00;100543.41;5082107;28;20216;-50
2024/01/12 06:13:21;;;;;;;0.10;0.10;;;;;;;1.79;100.00;100556.47;5093502;28;20206;-52
2024/01/12 06:16:09;;;;;;;0.10;0.10;;;;;;;1.86;100.00;100559.94;5093621;28;20317;-51
2024/01/12 06:18:56;;;;;;;0.10;0.10;;;;;;;1.93;100.00;100557.28;5093542;28;20198;-52
2024/01/12 06:21:43;;;;;;;0.10;0.10;;;;;;;1.82;100.00;100548.63;5091868;28;20231;-52
2024/01/12 06:24:31;;;;;;;0.10;0.10;;;;;;;2.52;100.00;100553.34;5093495;28;20199;-52
2024/01/12 06:27:17;;;;;;;0.10;0.10;;;;;;;2.32;100.00;100554.38;5093300;28;20230;-51
2024/01/12 06:30:05;;;;;;;0.10;0.10;;;;;;;1.97;100.00;100566.81;5093315;28;20199;-52
2024/01/12 06:32:54;;;;;;;0.10;0.10;;;;;;;1.93;100.00;100564.22;5093321;28;20256;-52
2024/01/12 06:35:41;;;;;;;0.10;0.10;;;;;;;1.76;100.00;100566.97;5093150;28;20244;-52
2024/01/12 06:38:28;;;;;;;0.10;0.10;;;;;;;1.78;100.00;100569.56;5093118;28;20195;-51
2024/01/12 06:41:15;;;;;;;0.10;0.10;;;;;;;1.57;100.00;100573.16;5092968;28;20191;-51
2024/01/12 06:44:01;;;;;;;0.10;0.10;;;;;;;1.48;100.00;100581.88;5093172;28;20194;-52
2024/01/12 06:46:48;;;;;;;0.00;0.00;;;;;;;1.57;100.00;100578.38;5093009;28;20248;-52
2024/01/12 06:49:36;;;;;;;0.10;0.10;;;;;;;1.55;100.00;100569.69;5093099;28;20199;-52
2024/01/12 06:52:23;;;;;;;0.10;0.10;;;;;;;1.65;100.00;100571.38;5091780;28;20202;-52
2024/01/12 06:55:10;;;;;;;0.10;0.10;;;;;;;1.58;100.00;100575.75;5093140;28;20203;-52
2024/01/12 06:57:57;;;;;;;0.10;0.10;;;;;;;1.62;100.00;100577.47;5092063;28;20191;-52
2024/01/12 07:00:44;;;;;;;0.10;0.10;;;;;;;1.61;100.00;100580.09;5092942;28;20210;-52
2024/01/12 07:03:31;;;;;;;0.10;0.10;;;;;;;1.50;100.00;100561.84;5092895;28;20215;-51
2024/01/12 07:06:19;;;;;;;0.13;0.13;;;;;;;1.65;100.00;100569.63;5091699;28;20325;-51
2024/01/12 07:09:06;;;;;;;0.10;0.10;;;;;;;1.50;100.00;100568.81;5092690;28;20194;-51
2024/01/12 07:11:54;;;;;;;0.10;0.10;;;;;;;1.62;100.00;100564.41;5092802;28;20222;-52
2024/01/12 07:14:41;;;;;;;0.10;0.10;;;;;;;1.52;100.00;100573.16;5077705;28;20407;-52
2024/01/12 07:17:28;;;;;;;0.10;0.10;;;;;;;1.58;100.00;100577.50;5092908;28;20253;-52
2024/01/12 07:20:15;;;;;;;0.10;0.10;;;;;;;1.63;100.00;100573.97;5092684;28;20218;-52
2024/01/12 07:23:03;;;;;;;0.10;0.10;;;;;;;1.54;100.00;100567.91;5091145;28;20338;-54
2024/01/12 07:25:50;;;;;;;0.10;0.10;;;;;;;1.83;100.00;100557.31;5095266;28;20697;-51
2024/01/12 07:28:37;;;;;;;0.10;0.10;;;;;;;1.95;100.00;100565.97;5096803;28;20218;-52
2024/01/12 07:31:24;;;;;;;0.10;0.10;;;;;;;1.63;100.00;100566.13;5096666;28;20214;-52
2024/01/12 07:34:11;;;;;;;0.10;0.10;;;;;;;1.55;100.00;100573.16;5096713;28;20187;-52
2024/01/12 07:36:58;;;;;;;0.07;0.07;;;;;;;1.50;100.00;100569.69;5095261;28;20266;-52
2024/01/12 07:39:47;;;;;;;0.10;0.10;;;;;;;1.86;100.00;100565.16;5095962;28;20218;-52
2024/01/12 07:42:34;;;;;;;0.00;0.00;;;;;;;2.11;100.00;100568.47;5092555;28;20195;-51
2024/01/12 07:45:22;;;;;;;0.10;0.10;;;;;;;2.27;100.00;100576.19;5096380;28;20253;-52
2024/01/12 07:48:09;;;;;;;0.10;0.10;;;;;;;2.70;100.00;100570.63;5096161;28;20214;-52
2024/01/12 07:50:55;;;;;;;0.10;0.10;;;;;;;2.87;100.00;100565.22;5096002;28;20209;-52
2024/01/12 07:53:42;;;;;;;0.10;0.10;;;;;;;3.26;100.00;100568.28;5096237;28;20648;-52
2024/01/12 07:56:31;;;;;;;0.10;0.10;;;;;;;2.93;100.00;100556.44;5096370;28;20195;-52
2024/01/12 07:59:19;;;;;;;0.10;0.10;;;;;;;2.25;100.00;100557.03;5096171;28;20187;-51
2024/01/12 08:02:06;;;;;;;0.10;0.10;;;;;;;2.07;100.00;100564.16;5095991;28;20195;-52
2024/01/12 08:04:52;;;;;;;0.10;0.10;;;;;;;1.85;100.00;100569.53;5096022;28;20195;-51
2024/01/12 08:07:39;;;;;;;0.10;0.10;;;;;;;1.88;100.00;100576.47;5094521;28;20696;-52
2024/01/12 08:10:26;;;;;;;0.10;0.10;;;;;;;2.03;100.00;100579.00;5095762;28;20195;-52
2024/01/12 08:13:15;;;;;;;0.10;0.10;;;;;;;2.01;100.00;100585.94;5095912;28;20677;-51
2024/01/12 08:16:05;;;;;;;0.00;0.00;;;;;;;1.80;100.00;100586.09;5096030;28;20265;-52
2024/01/12 08:18:52;;;;;;;0.10;0.10;;;;;;;2.02;100.00;100587.69;5095578;28;20207;-51
2024/01/12 08:21:38;;;;;;;0.10;0.10;;;;;;;2.14;100.00;100582.41;5094147;28;20226;-51
2024/01/12 08:24:38;;;;;;;0.10;0.10;;;;;;;1.94;100.00;100579.91;5095894;28;20198;-51
2024/01/12 08:27:24;;;;;;;0.10;0.10;;;;;;;2.28;100.00;100582.28;5095519;28;20218;-52
2024/01/12 08:30:13;;;;;;;0.10;0.10;;;;;;;2.08;100.00;100578.94;5095656;28;20281;-51
2024/01/12 08:33:00;;;;;;;0.10;0.10;;;;;;;2.41;100.00;100578.69;5095493;28;20195;-52
2024/01/12 08:35:47;;;;;;;0.10;0.10;;;;;;;2.40;100.00;100582.19;5094785;28;20195;-54
2024/01/12 08:38:34;;;;;;;0.10;0.10;;;;;;;2.45;100.00;100571.72;5095230;28;20186;-51
2024/01/12 08:41:21;;;;;;;0.10;0.10;;;;;;;2.03;100.00;100575.47;5095295;28;20673;-51
2024/01/12 08:44:08;;;;;;;0.10;0.10;;;;;;;1.90;100.00;100569.47;5095379;28;20194;-51
2024/01/12 08:46:56;;;;;;;0.10;0.10;;;;;;;1.87;100.00;100569.50;5095243;28;20206;-51
2024/01/12 08:49:43;;;;;;;0.10;0.10;;;;;;;1.93;100.00;100569.44;5095322;28;20230;-52
2024/01/12 08:52:30;;;;;;;0.10;0.10;;;;;;;1.88;100.00;100571.25;5073717;28;20230;-51
2024/01/12 08:55:17;;;;;;;0.10;0.10;;;;;;;1.79;100.00;100566.94;5074791;28;20195;-51
2024/01/12 08:58:04;;;;;;;0.10;0.10;;;;;;;1.88;100.00;100576.47;5092176;28;20203;-51
2024/01/12 09:00:51;;;;;;;0.10;0.10;;;;;;;1.80;100.00;100583.47;5094858;28;20202;-51
2024/01/12 09:03:39;;;;;;;0.10;0.10;;;;;;;1.57;100.00;100581.84;5095026;28;20190;-51
2024/01/12 09:06:26;;;;;;;0.10;0.10;;;;;;;1.54;100.00;100578.38;5093698;28;20394;-51
2024/01/12 09:09:13;;;;;;;0.10;0.10;;;;;;;1.52;100.00;100583.59;5094639;28;20214;-51
2024/01/12 09:12:00;;;;;;;0.10;0.10;;;;;;;1.89;100.00;100579.06;5094370;28;20230;-51
2024/01/12 09:14:47;;;;;;;0.10;0.10;;;;;;;1.85;100.00;100592.16;5094771;28;20198;-51
2024/01/12 09:17:34;;;;;;;0.10;0.10;;;;;;;1.98;100.00;100586.84;5094609;28;20183;-52
2024/01/12 09:20:22;;;;;;;0.10;0.10;;;;;;;1.59;100.00;100592.28;5094507;28;20629;-52
2024/01/12 09:23:09;;;;;;;0.10;0.10;;;;;;;1.89;100.00;100593.88;5093185;28;20318;-51
2024/01/12 09:25:56;;;;;;;0.10;0.10;;;;;;;2.44;100.00;100589.16;5094333;28;20198;-51
2024/01/12 09:28:43;;;;;;;0.10;0.10;;;;;;;2.77;100.00;100585.34;5094249;28;20333;-51
2024/01/12 09:31:30;;;;;;;0.10;0.10;;;;;;;2.87;100.00;100576.53;5094459;28;20203;-51
2024/01/12 09:34:17;;;;;;;0.10;0.10;;;;;;;3.10;100.00;100581.56;5094398;28;20203;-52
2024/01/12 09:37:06;;;;;;;0.10;0.10;;;;;;;2.89;100.00;100594.84;5093006;28;20194;-52
2024/01/12 09:39:53;;;;;;;0.10;0.10;;;;;;;3.02;100.00;100591.25;5094281;28;20673;-52
2024/01/12 09:42:44;;;;;;;0.10;0.10;;;;;;;2.74;100.00;100584.53;5094231;28;20294;-51
2024/01/12 09:45:37;;;;;;;0.10;0.10;;;;;;;2.79;100.00;100598.41;5093887;28;20198;-52
2024/01/12 09:48:24;;;;;;;0.10;0.10;;;;;;;2.56;100.00;100590.78;5093659;28;20281;-52
2024/01/12 09:51:15;;;;;;;0.10;0.10;;;;;;;2.33;100.00;100598.81;5084450;28;20190;-51
2024/01/12 09:54:04;;;;;;;0.10;0.10;;;;;;;2.76;100.00;100590.63;5094049;28;20187;-52
2024/01/12 09:56:52;;;;;;;0.10;0.10;;;;;;;2.94;100.00;100579.09;5093860;28;20195;-51
2024/01/12 09:59:41;;;;;;;0.10;0.10;;;;;;;2.61;100.00;100588.16;5093876;28;20352;-52
2024/01/12 10:02:28;;;;;;;0.10;0.10;;;;;;;2.70;100.00;100588.94;5073722;28;20278;-52
2024/01/12 10:05:15;;;;;;;0.10;0.10;;;;;;;2.32;100.00;100575.28;5073398;28;20192;-52
2024/01/12 10:08:02;;;;;;;0.10;0.10;;;;;;;2.56;100.00;100583.81;5071996;28;20215;-51
2024/01/12 10:10:51;;;;;;;0.10;0.10;;;;;;;2.87;100.00;100587.00;5080529;28;20218;-52
2024/01/12 10:13:38;;;;;;;0.10;0.10;;;;;;;2.47;100.00;100586.50;5093553;28;20265;-52
2024/01/12 10:16:28;;;;;;;0.10;0.10;;;;;;;2.83;100.00;100581.84;5093599;28;20194;-52
2024/01/12 10:19:15;;;;;;;0.10;0.10;;;;;;;2.46;100.00;100576.91;5093536;28;20190;-52
2024/01/12 10:22:02;;;;;;;0.10;0.10;;;;;;;2.67;100.00;100580.22;5091488;28;20281;-52
2024/01/12 10:24:58;;;;;;;0.10;0.10;;;;;;;2.59;100.00;100583.78;5093426;28;20195;-52
2024/01/12 10:27:56;;;;;;;0.10;0.10;;;;;;;2.58;100.00;100578.56;5092982;28;20720;-52
2024/01/12 10:30:42;;;;;;;0.10;0.10;;;;;;;2.70;100.00;100583.72;5093306;28;20211;-52
2024/01/12 10:33:30;;;;;;;0.10;0.10;;;;;;;2.52;100.00;100579.50;5093208;28;20284;-52
2024/01/12 10:36:21;;;;;;;0.10;0.10;;;;;;;2.27;100.00;100570.97;5091933;28;20222;-52
2024/01/12 10:39:09;;;;;;;0.10;0.10;;;;;;;2.44;100.00;100570.84;5093031;28;20206;-52
2024/01/12 10:42:02;;;;;;;0.00;0.00;;;;;;;2.56;100.00;100570.72;5093236;28;20268;-52
2024/01/12 10:44:52;;;;;;;0.10;0.10;;;;;;;2.97;100.00;100561.63;5092960;28;20191;-52
2024/01/12 10:47:44;;;;;;;0.10;0.10;;;;;;;2.68;100.00;100555.81;5093079;28;20203;-51
2024/01/12 10:50:34;;;;;;;0.10;0.10;;;;;;;2.98;100.00;100558.09;5092806;28;20199;-52
2024/01/12 10:53:28;;;;;;;0.10;0.10;;;;;;;2.99;100.00;100558.97;5076894;28;20265;-52
2024/01/12 10:56:17;;;;;;;0.10;0.10;;;;;;;2.69;100.00;100553.16;5092966;28;20199;-52
2024/01/12 10:59:05;;;;;;;0.10;0.10;;;;;;;3.03;100.00;100553.72;5092422;28;20223;-52
2024/01/12 11:01:54;;;;;;;0.10;0.10;;;;;;;2.55;100.00;100555.91;5092906;28;20293;-52
2024/01/12 11:04:42;;;;;;;0.10;0.10;;;;;;;2.71;100.00;100554.03;5093078;28;20187;-52
2024/01/12 11:07:29;;;;;;;0.10;0.10;;;;;;;2.83;100.00;100532.13;5091669;28;20199;-52
2024/01/12 11:10:18;;;;;;;0.03;0.03;;;;;;;2.36;100.00;100532.56;5092469;28;20222;-52
2024/01/12 11:13:06;;;;;;;0.10;0.10;;;;;;;2.56;100.00;100534.13;5092817;28;20775;-51
2024/01/12 11:15:55;;;;;;;0.10;0.10;;;;;;;2.71;100.00;100534.88;5092941;28;20303;-51
2024/01/12 11:18:43;;;;;;;0.10;0.10;;;;;;;2.38;100.00;100546.47;5092752;28;20254;-52
2024/01/12 11:21:30;;;;;;;0.10;0.10;;;;;;;2.15;100.00;100541.44;5086889;28;20218;-51
2024/01/12 11:24:17;;;;;;;0.10;0.10;;;;;;;2.22;100.00;100536.16;5072635;28;20191;-51
2024/01/12 11:27:05;;;;;;;0.10;0.10;;;;;;;1.96;100.00;100530.25;5072540;28;20187;-52
2024/01/12 11:29:58;;;;;;;0.10;0.10;;;;;;;2.04;100.00;100530.22;5072205;28;20702;-51
2024/01/12 11:32:45;;;;;;;0.10;0.10;;;;;;;1.70;100.00;100520.84;5052283;28;20675;-52
2024/01/12 11:35:34;;;;;;;0.10;0.10;;;;;;;1.94;100.00;100519.81;5052497;28;20192;-51
2024/01/12 11:38:21;;;;;;;0.10;0.10;;;;;;;1.84;100.00;100522.50;5052430;28;20192;-51
2024/01/12 11:41:12;;;;;;;0.10;0.10;;;;;;;1.87;100.00;100520.72;5060558;28;20238;-51
2024/01/12 11:44:00;;;;;;;0.10;0.10;;;;;;;2.24;100.00;100518.72;5072311;28;20208;-52
2024/01/12 11:46:48;;;;;;;0.10;0.10;;;;;;;2.05;100.00;100511.91;5072284;28;20192;-52
2024/01/12 11:49:35;;;;;;;0.10;0.10;;;;;;;3.47;100.00;100512.16;5064828;28;20216;-51
2024/01/12 11:52:23;;;;;;;0.10;0.10;;;;;;;3.16;100.00;100507.31;5066277;28;20689;-52
2024/01/12 11:55:11;;;;;;;0.10;0.10;;;;;;;3.16;100.00;100505.56;5072209;28;20690;-52
2024/01/12 11:57:58;;;;;;;0.10;0.10;;;;;;;2.68;100.00;100490.41;5072071;28;20191;-52
2024/01/12 12:00:49;;;;;;;0.00;0.00;;;;;;;3.23;100.00;100490.66;5072206;28;20199;-52
2024/01/12 12:03:36;;;;;;;0.10;0.10;;;;;;;2.51;100.00;100490.56;5072172;28;20195;-52
2024/01/12 12:06:23;;;;;;;0.10;0.10;;;;;;;2.24;100.00;100483.88;5070800;28;20211;-51
2024/01/12 12:09:11;;;;;;;0.10;0.10;;;;;;;2.58;100.00;100481.78;5072105;28;20242;-52
2024/01/12 12:11:58;;;;;;;0.10;0.10;;;;;;;2.28;100.00;100480.34;5073612;28;20291;-51
2024/01/12 12:14:58;;;;;;;0.10;0.10;;;;;;;2.01;100.00;100477.06;5075462;28;20195;-52
2024/01/12 12:17:47;;;;;;;0.10;0.10;;;;;;;2.17;100.00;100476.97;5075521;28;20187;-52
2024/01/12 12:20:34;;;;;;;0.10;0.10;;;;;;;1.95;100.00;100476.28;5074898;28;20196;-52
2024/01/12 12:23:21;;;;;;;0.10;0.10;;;;;;;2.14;100.00;100477.84;5094837;28;20226;-51
2024/01/12 12:26:10;;;;;;;0.10;0.10;;;;;;;1.82;100.00;100466.78;5095761;28;20187;-52
2024/01/12 12:28:58;;;;;;;0.10;0.10;;;;;;;1.91;100.00;100470.19;5095630;28;20218;-52
2024/01/12 12:31:45;;;;;;;0.10;0.10;;;;;;;1.75;100.00;100468.59;5082981;28;20265;-51
2024/01/12 12:34:32;;;;;;;0.10;0.10;;;;;;;1.92;100.00;100471.06;5075278;28;20670;-52
2024/01/12 12:37:22;;;;;;;0.10;0.10;;;;;;;1.90;100.00;100476.28;5073940;28;20367;-51
2024/01/12 12:40:11;;;;;;;0.00;0.00;;;;;;;1.76;100.00;100461.63;5075232;28;20670;-52
2024/01/12 12:42:59;;;;;;;0.10;0.10;;;;;;;2.04;100.00;100457.06;5049191;28;20304;-52
2024/01/12 12:45:46;;;;;;;0.10;0.10;;;;;;;2.01;100.00;100458.78;5059391;28;20195;-51
2024/01/12 12:48:34;;;;;;;0.10;0.10;;;;;;;2.01;100.00;100455.31;5079819;28;20199;-52
2024/01/12 12:51:21;;;;;;;0.10;0.10;;;;;;;1.88;100.00;100454.53;5084518;28;20195;-51
2024/01/12 12:54:07;;;;;;;0.10;0.10;;;;;;;1.32;100.00;100447.97;5075042;28;20191;-51
2024/01/12 12:56:57;;;;;;;0.10;0.10;;;;;;;1.55;100.00;100439.13;5075004;28;20207;-52
2024/01/12 12:59:45;;;;;;;0.10;0.10;;;;;;;1.46;100.00;100444.41;5074691;28;20190;-51